Overview Statistics Trail Chart Weather Telemetry Raw packets
 

This is the latest recevied weather packets stored in our database for station/object SV9TNF-51. If no packets are shown the sender has not sent any weather packets the latest 10 day(s).

<< 8 9 10 11 12 13 14 >>
Time Temp. Humidity Pressure Rain* Wind** Luminosity Snow
1788599559 31.67° C 43% 1014.6 hPa 0 mm 9.83 m/s, 331° - -
1788599259 31.67° C 43% 1014.6 hPa 0 mm 8.94 m/s, 258° - -
1788598959 32.78° C 42% 1014.6 hPa 0 mm 2.24 m/s, 127° - -
1788598658 32.22° C 42% 1014.6 hPa 0 mm 5.81 m/s, 346° - -
1788598358 32.78° C 42% 1014.6 hPa 0 mm 1.34 m/s, 130° - -
1788598076 32.22° C 42% 1014.6 hPa 0 mm 4.92 m/s, 131° - -
1788597758 31.67° C 43% 1014.6 hPa 0 mm 13.41 m/s, 328° - -
1788597458 31.67° C 43% 1014.6 hPa 0 mm 8.94 m/s, 357° - -
1788597158 32.22° C 42% 1014.6 hPa 0 mm 4.92 m/s, 350° - -
1788596858 32.22° C 42% 1014.6 hPa 0 mm 7.15 m/s, 132° - -
1788596558 31.67° C 43% 1014.6 hPa 0 mm 3.13 m/s, 68° - -
1788596257 32.22° C 42% 1014.6 hPa 0 mm 0.45 m/s, 324° - -
1788595958 31.67° C 44% 1014.6 hPa 0 mm 7.6 m/s, 302° - -
1788595657 31.67° C 45% 1014.6 hPa 0 mm 10.28 m/s, 335° - -
1788595357 31.67° C 45% 1014.6 hPa 0 mm 4.92 m/s, 356° - -
1788595057 31.67° C 46% 1014.2 hPa 0 mm 6.71 m/s, 57° - -
1788594757 32.78° C 44% 1014.2 hPa 0 mm 1.34 m/s, 125° - -
1788594457 32.22° C 43% 1014.6 hPa 0 mm 1.79 m/s, 120° - -
1788594157 32.22° C 42% 1014.6 hPa 0 mm 1.34 m/s, 303° - -
1788593857 31.11° C 45% 1014.6 hPa 0 mm 8.05 m/s, 326° - -
1788593557 31.67° C 45% 1014.2 hPa 0 mm 3.13 m/s, 18° - -
1788593257 30.56° C 46% 1014.2 hPa 0 mm 8.49 m/s, 324° - -
1788592957 32.22° C 44% 1014.2 hPa 0 mm 1.79 m/s, 160° - -
1788592656 31.67° C 44% 1014.2 hPa 0 mm 1.34 m/s, 125° - -
1788592356 30.56° C 46% 1014.2 hPa 0 mm 4.92 m/s, 138° - -

* Rain latest hour (hover to see other rain measurements)
** Current wind speed in m/s (hover to see current wind gust speed)